sensor_id;sensor_type;location;lat;lon;timestamp;P1;durP1;ratioP1;P2;durP2;ratioP2
7563;SDS011;3823;53.586;10.040;2022-09-17T00:01:59;18.40;;;4.45;;
7563;SDS011;3823;53.586;10.040;2022-09-17T00:04:25;18.60;;;3.60;;
7563;SDS011;3823;53.586;10.040;2022-09-17T00:06:51;15.90;;;3.45;;
7563;SDS011;3823;53.586;10.040;2022-09-17T00:09:17;13.95;;;2.92;;
7563;SDS011;3823;53.586;10.040;2022-09-17T00:11:42;15.38;;;3.60;;
7563;SDS011;3823;53.586;10.040;2022-09-17T00:14:12;13.38;;;3.35;;
7563;SDS011;3823;53.586;10.040;2022-09-17T00:16:40;13.73;;;2.92;;
7563;SDS011;3823;53.586;10.040;2022-09-17T00:19:11;10.40;;;3.22;;
7563;SDS011;3823;53.586;10.040;2022-09-17T00:21:39;12.82;;;3.17;;
7563;SDS011;3823;53.586;10.040;2022-09-17T00:24:05;10.60;;;3.35;;
7563;SDS011;3823;53.586;10.040;2022-09-17T00:26:31;22.42;;;3.72;;
7563;SDS011;3823;53.586;10.040;2022-09-17T00:28:59;22.45;;;3.25;;
7563;SDS011;3823;53.586;10.040;2022-09-17T00:31:25;12.95;;;3.47;;
7563;SDS011;3823;53.586;10.040;2022-09-17T00:33:51;13.63;;;3.13;;
7563;SDS011;3823;53.586;10.040;2022-09-17T00:36:18;12.85;;;3.05;;
7563;SDS011;3823;53.586;10.040;2022-09-17T00:38:47;13.10;;;2.90;;
7563;SDS011;3823;53.586;10.040;2022-09-17T00:41:16;17.63;;;3.53;;
7563;SDS011;3823;53.586;10.040;2022-09-17T00:43:44;20.63;;;3.30;;
7563;SDS011;3823;53.586;10.040;2022-09-17T00:46:18;18.98;;;3.67;;
7563;SDS011;3823;53.586;10.040;2022-09-17T00:48:53;17.25;;;4.28;;
7563;SDS011;3823;53.586;10.040;2022-09-17T00:51:24;12.63;;;3.00;;
7563;SDS011;3823;53.586;10.040;2022-09-17T00:53:57;10.13;;;2.95;;
7563;SDS011;3823;53.586;10.040;2022-09-17T00:56:26;13.48;;;2.53;;
7563;SDS011;3823;53.586;10.040;2022-09-17T00:58:55;15.00;;;2.88;;
7563;SDS011;3823;53.586;10.040;2022-09-17T01:01:21;13.85;;;3.28;;
7563;SDS011;3823;53.586;10.040;2022-09-17T01:03:47;16.48;;;3.00;;
7563;SDS011;3823;53.586;10.040;2022-09-17T01:09:12;17.88;;;2.45;;
7563;SDS011;3823;53.586;10.040;2022-09-17T01:28:37;20.38;;;3.30;;
7563;SDS011;3823;53.586;10.040;2022-09-17T01:31:17;13.95;;;2.72;;
7563;SDS011;3823;53.586;10.040;2022-09-17T01:39:02;15.40;;;3.13;;
7563;SDS011;3823;53.586;10.040;2022-09-17T01:44:35;10.15;;;2.88;;
7563;SDS011;3823;53.586;10.040;2022-09-17T01:47:08;15.90;;;2.38;;
7563;SDS011;3823;53.586;10.040;2022-09-17T01:49:36;8.07;;;2.80;;
7563;SDS011;3823;53.586;10.040;2022-09-17T01:52:03;11.50;;;2.83;;
7563;SDS011;3823;53.586;10.040;2022-09-17T01:54:30;13.13;;;3.47;;
7563;SDS011;3823;53.586;10.040;2022-09-17T01:57:08;15.90;;;3.42;;
7563;SDS011;3823;53.586;10.040;2022-09-17T01:59:55;18.15;;;3.05;;
7563;SDS011;3823;53.586;10.040;2022-09-17T02:02:33;11.82;;;2.20;;
7563;SDS011;3823;53.586;10.040;2022-09-17T02:05:08;10.20;;;3.00;;
7563;SDS011;3823;53.586;10.040;2022-09-17T02:07:41;8.23;;;2.40;;
7563;SDS011;3823;53.586;10.040;2022-09-17T02:10:18;9.98;;;2.45;;
7563;SDS011;3823;53.586;10.040;2022-09-17T02:12:48;10.07;;;2.33;;
7563;SDS011;3823;53.586;10.040;2022-09-17T02:15:21;12.48;;;2.78;;
7563;SDS011;3823;53.586;10.040;2022-09-17T02:18:35;5.70;;;2.47;;
7563;SDS011;3823;53.586;10.040;2022-09-17T02:20:47;11.77;;;2.55;;
7563;SDS011;3823;53.586;10.040;2022-09-17T02:23:20;11.55;;;3.20;;
7563;SDS011;3823;53.586;10.040;2022-09-17T02:25:52;6.65;;;2.05;;
7563;SDS011;3823;53.586;10.040;2022-09-17T02:28:32;6.32;;;2.58;;
7563;SDS011;3823;53.586;10.040;2022-09-17T02:31:01;10.60;;;2.83;;
7563;SDS011;3823;53.586;10.040;2022-09-17T02:33:26;15.35;;;3.80;;
7563;SDS011;3823;53.586;10.040;2022-09-17T02:35:54;9.77;;;2.30;;
7563;SDS011;3823;53.586;10.040;2022-09-17T02:38:20;11.68;;;3.00;;
7563;SDS011;3823;53.586;10.040;2022-09-17T02:40:50;14.65;;;2.45;;
7563;SDS011;3823;53.586;10.040;2022-09-17T02:43:49;15.60;;;2.20;;
7563;SDS011;3823;53.586;10.040;2022-09-17T02:49:54;8.18;;;1.92;;
7563;SDS011;3823;53.586;10.040;2022-09-17T03:00:38;11.95;;;2.47;;
7563;SDS011;3823;53.586;10.040;2022-09-17T03:03:05;14.95;;;3.47;;
7563;SDS011;3823;53.586;10.040;2022-09-17T03:05:36;8.05;;;2.05;;
7563;SDS011;3823;53.586;10.040;2022-09-17T03:08:06;7.47;;;1.42;;
7563;SDS011;3823;53.586;10.040;2022-09-17T03:10:33;16.95;;;3.30;;
7563;SDS011;3823;53.586;10.040;2022-09-17T03:12:59;10.80;;;2.42;;
7563;SDS011;3823;53.586;10.040;2022-09-17T03:15:25;9.93;;;3.20;;
7563;SDS011;3823;53.586;10.040;2022-09-17T03:17:50;12.57;;;2.25;;
7563;SDS011;3823;53.586;10.040;2022-09-17T03:20:16;18.40;;;3.25;;
7563;SDS011;3823;53.586;10.040;2022-09-17T03:22:42;14.02;;;1.83;;
7563;SDS011;3823;53.586;10.040;2022-09-17T03:25:08;7.72;;;2.90;;
7563;SDS011;3823;53.586;10.040;2022-09-17T03:27:33;6.78;;;2.30;;
7563;SDS011;3823;53.586;10.040;2022-09-17T03:29:59;12.52;;;2.80;;
7563;SDS011;3823;53.586;10.040;2022-09-17T03:32:25;6.22;;;2.20;;
7563;SDS011;3823;53.586;10.040;2022-09-17T03:34:51;6.88;;;2.15;;
7563;SDS011;3823;53.586;10.040;2022-09-17T03:37:18;9.63;;;2.25;;
7563;SDS011;3823;53.586;10.040;2022-09-17T03:39:44;9.45;;;2.92;;
7563;SDS011;3823;53.586;10.040;2022-09-17T03:42:09;10.15;;;2.33;;
7563;SDS011;3823;53.586;10.040;2022-09-17T03:44:35;9.52;;;1.65;;
7563;SDS011;3823;53.586;10.040;2022-09-17T03:47:01;7.93;;;1.73;;
7563;SDS011;3823;53.586;10.040;2022-09-17T03:49:26;7.93;;;1.92;;
7563;SDS011;3823;53.586;10.040;2022-09-17T03:51:52;7.63;;;2.10;;
7563;SDS011;3823;53.586;10.040;2022-09-17T03:54:17;7.50;;;2.03;;
7563;SDS011;3823;53.586;10.040;2022-09-17T03:56:43;12.80;;;2.47;;
7563;SDS011;3823;53.586;10.040;2022-09-17T03:59:09;18.38;;;3.13;;
7563;SDS011;3823;53.586;10.040;2022-09-17T04:01:35;9.77;;;2.10;;
7563;SDS011;3823;53.586;10.040;2022-09-17T04:04:01;5.65;;;1.60;;
7563;SDS011;3823;53.586;10.040;2022-09-17T04:06:27;12.02;;;1.95;;
7563;SDS011;3823;53.586;10.040;2022-09-17T04:08:53;4.68;;;1.67;;
7563;SDS011;3823;53.586;10.040;2022-09-17T04:11:18;8.50;;;2.05;;
7563;SDS011;3823;53.586;10.040;2022-09-17T04:13:44;4.70;;;1.20;;
7563;SDS011;3823;53.586;10.040;2022-09-17T04:16:10;7.40;;;1.67;;
7563;SDS011;3823;53.586;10.040;2022-09-17T04:18:36;7.72;;;1.90;;
7563;SDS011;3823;53.586;10.040;2022-09-17T04:21:01;11.52;;;2.35;;
7563;SDS011;3823;53.586;10.040;2022-09-17T04:23:27;7.10;;;1.80;;
7563;SDS011;3823;53.586;10.040;2022-09-17T04:25:53;6.82;;;2.20;;
7563;SDS011;3823;53.586;10.040;2022-09-17T04:28:18;7.28;;;1.95;;
7563;SDS011;3823;53.586;10.040;2022-09-17T04:30:44;9.20;;;1.60;;
7563;SDS011;3823;53.586;10.040;2022-09-17T04:33:11;7.07;;;1.63;;
7563;SDS011;3823;53.586;10.040;2022-09-17T04:35:37;8.50;;;1.70;;
7563;SDS011;3823;53.586;10.040;2022-09-17T04:38:02;12.55;;;2.88;;
7563;SDS011;3823;53.586;10.040;2022-09-17T04:40:28;6.97;;;1.77;;
7563;SDS011;3823;53.586;10.040;2022-09-17T04:42:54;12.98;;;2.15;;
7563;SDS011;3823;53.586;10.040;2022-09-17T04:45:20;6.18;;;1.90;;
7563;SDS011;3823;53.586;10.040;2022-09-17T04:47:46;11.35;;;2.47;;
7563;SDS011;3823;53.586;10.040;2022-09-17T04:50:14;5.03;;;1.85;;
7563;SDS011;3823;53.586;10.040;2022-09-17T04:52:42;12.80;;;2.50;;
7563;SDS011;3823;53.586;10.040;2022-09-17T04:55:08;11.65;;;2.92;;
7563;SDS011;3823;53.586;10.040;2022-09-17T04:57:34;9.45;;;1.88;;
7563;SDS011;3823;53.586;10.040;2022-09-17T04:59:59;9.80;;;2.17;;
7563;SDS011;3823;53.586;10.040;2022-09-17T05:02:25;12.95;;;3.10;;
7563;SDS011;3823;53.586;10.040;2022-09-17T05:04:51;12.00;;;2.15;;
7563;SDS011;3823;53.586;10.040;2022-09-17T05:07:17;15.25;;;3.40;;
7563;SDS011;3823;53.586;10.040;2022-09-17T05:09:42;9.95;;;2.33;;
7563;SDS011;3823;53.586;10.040;2022-09-17T05:12:08;8.35;;;2.83;;
7563;SDS011;3823;53.586;10.040;2022-09-17T05:14:33;11.00;;;2.45;;
7563;SDS011;3823;53.586;10.040;2022-09-17T05:16:59;9.77;;;2.47;;
7563;SDS011;3823;53.586;10.040;2022-09-17T05:19:24;5.88;;;1.70;;
7563;SDS011;3823;53.586;10.040;2022-09-17T05:21:50;5.40;;;1.48;;
7563;SDS011;3823;53.586;10.040;2022-09-17T05:24:15;3.00;;;1.52;;
7563;SDS011;3823;53.586;10.040;2022-09-17T05:26:41;7.25;;;2.28;;
7563;SDS011;3823;53.586;10.040;2022-09-17T05:29:06;10.52;;;2.55;;
7563;SDS011;3823;53.586;10.040;2022-09-17T05:31:32;7.47;;;1.63;;
7563;SDS011;3823;53.586;10.040;2022-09-17T05:33:57;8.68;;;1.65;;
7563;SDS011;3823;53.586;10.040;2022-09-17T05:36:23;6.28;;;2.15;;
7563;SDS011;3823;53.586;10.040;2022-09-17T05:38:49;14.38;;;2.55;;
7563;SDS011;3823;53.586;10.040;2022-09-17T05:41:14;6.50;;;1.58;;
7563;SDS011;3823;53.586;10.040;2022-09-17T05:43:41;5.47;;;1.88;;
7563;SDS011;3823;53.586;10.040;2022-09-17T05:46:07;11.13;;;3.10;;
7563;SDS011;3823;53.586;10.040;2022-09-17T05:48:33;7.72;;;1.83;;
7563;SDS011;3823;53.586;10.040;2022-09-17T05:50:58;5.85;;;1.90;;
7563;SDS011;3823;53.586;10.040;2022-09-17T05:53:24;12.82;;;3.00;;
7563;SDS011;3823;53.586;10.040;2022-09-17T05:55:49;11.65;;;2.47;;
7563;SDS011;3823;53.586;10.040;2022-09-17T05:58:16;9.27;;;2.08;;
7563;SDS011;3823;53.586;10.040;2022-09-17T06:00:43;9.95;;;1.85;;
7563;SDS011;3823;53.586;10.040;2022-09-17T06:03:11;7.30;;;1.67;;
7563;SDS011;3823;53.586;10.040;2022-09-17T06:05:37;9.13;;;2.15;;
7563;SDS011;3823;53.586;10.040;2022-09-17T06:08:03;9.70;;;1.90;;
7563;SDS011;3823;53.586;10.040;2022-09-17T06:10:29;3.45;;;1.85;;
7563;SDS011;3823;53.586;10.040;2022-09-17T06:12:58;8.30;;;1.42;;
7563;SDS011;3823;53.586;10.040;2022-09-17T06:15:24;8.75;;;3.05;;
7563;SDS011;3823;53.586;10.040;2022-09-17T06:17:51;13.32;;;2.38;;
7563;SDS011;3823;53.586;10.040;2022-09-17T06:20:17;11.10;;;1.70;;
7563;SDS011;3823;53.586;10.040;2022-09-17T06:22:43;13.25;;;1.50;;
7563;SDS011;3823;53.586;10.040;2022-09-17T06:25:08;7.78;;;1.48;;
7563;SDS011;3823;53.586;10.040;2022-09-17T06:27:34;10.75;;;2.25;;
7563;SDS011;3823;53.586;10.040;2022-09-17T06:30:00;6.40;;;1.83;;
7563;SDS011;3823;53.586;10.040;2022-09-17T06:32:26;7.60;;;1.75;;
7563;SDS011;3823;53.586;10.040;2022-09-17T06:34:52;11.43;;;2.35;;
7563;SDS011;3823;53.586;10.040;2022-09-17T06:37:19;5.68;;;2.15;;
7563;SDS011;3823;53.586;10.040;2022-09-17T06:39:51;10.77;;;1.70;;
7563;SDS011;3823;53.586;10.040;2022-09-17T06:42:16;8.13;;;1.98;;
7563;SDS011;3823;53.586;10.040;2022-09-17T06:44:42;10.57;;;1.55;;
7563;SDS011;3823;53.586;10.040;2022-09-17T06:47:07;10.00;;;1.48;;
7563;SDS011;3823;53.586;10.040;2022-09-17T06:49:33;7.07;;;1.35;;
7563;SDS011;3823;53.586;10.040;2022-09-17T06:51:58;5.38;;;1.15;;
7563;SDS011;3823;53.586;10.040;2022-09-17T06:54:24;4.18;;;1.30;;
7563;SDS011;3823;53.586;10.040;2022-09-17T06:56:49;6.15;;;1.63;;
7563;SDS011;3823;53.586;10.040;2022-09-17T06:59:15;3.95;;;1.52;;
7563;SDS011;3823;53.586;10.040;2022-09-17T07:01:41;9.07;;;2.13;;
7563;SDS011;3823;53.586;10.040;2022-09-17T07:04:07;6.90;;;1.30;;
7563;SDS011;3823;53.586;10.040;2022-09-17T07:06:33;2.33;;;0.90;;
7563;SDS011;3823;53.586;10.040;2022-09-17T07:08:59;4.15;;;1.25;;
7563;SDS011;3823;53.586;10.040;2022-09-17T07:11:24;9.07;;;1.58;;
7563;SDS011;3823;53.586;10.040;2022-09-17T07:13:50;6.30;;;1.05;;
7563;SDS011;3823;53.586;10.040;2022-09-17T07:16:15;3.78;;;0.70;;
7563;SDS011;3823;53.586;10.040;2022-09-17T07:18:41;5.13;;;1.27;;
7563;SDS011;3823;53.586;10.040;2022-09-17T07:21:08;7.32;;;0.80;;
7563;SDS011;3823;53.586;10.040;2022-09-17T07:23:35;3.67;;;0.82;;
7563;SDS011;3823;53.586;10.040;2022-09-17T07:26:05;4.82;;;0.82;;
7563;SDS011;3823;53.586;10.040;2022-09-17T07:28:33;2.28;;;0.70;;
7563;SDS011;3823;53.586;10.040;2022-09-17T07:31:01;6.15;;;1.10;;
7563;SDS011;3823;53.586;10.040;2022-09-17T07:33:29;4.97;;;1.02;;
7563;SDS011;3823;53.586;10.040;2022-09-17T07:35:59;6.30;;;1.40;;
7563;SDS011;3823;53.586;10.040;2022-09-17T07:38:26;3.15;;;0.70;;
7563;SDS011;3823;53.586;10.040;2022-09-17T07:41:00;3.40;;;0.93;;
7563;SDS011;3823;53.586;10.040;2022-09-17T07:43:37;2.55;;;1.20;;
7563;SDS011;3823;53.586;10.040;2022-09-17T07:46:03;2.95;;;0.70;;
7563;SDS011;3823;53.586;10.040;2022-09-17T07:48:30;6.57;;;1.08;;
7563;SDS011;3823;53.586;10.040;2022-09-17T07:50:56;6.47;;;1.95;;
7563;SDS011;3823;53.586;10.040;2022-09-17T07:53:22;5.40;;;1.00;;
7563;SDS011;3823;53.586;10.040;2022-09-17T07:55:54;9.25;;;1.23;;
7563;SDS011;3823;53.586;10.040;2022-09-17T07:58:22;6.25;;;0.90;;
7563;SDS011;3823;53.586;10.040;2022-09-17T08:00:52;4.93;;;0.73;;
7563;SDS011;3823;53.586;10.040;2022-09-17T08:03:17;2.78;;;0.80;;
7563;SDS011;3823;53.586;10.040;2022-09-17T08:05:43;9.38;;;1.17;;
7563;SDS011;3823;53.586;10.040;2022-09-17T08:08:08;9.88;;;1.42;;
7563;SDS011;3823;53.586;10.040;2022-09-17T08:10:34;3.35;;;1.13;;
7563;SDS011;3823;53.586;10.040;2022-09-17T08:13:00;16.52;;;1.48;;
7563;SDS011;3823;53.586;10.040;2022-09-17T08:15:25;3.70;;;1.30;;
7563;SDS011;3823;53.586;10.040;2022-09-17T08:17:51;9.60;;;1.15;;
7563;SDS011;3823;53.586;10.040;2022-09-17T08:20:17;2.75;;;1.05;;
7563;SDS011;3823;53.586;10.040;2022-09-17T08:22:43;3.72;;;1.52;;
7563;SDS011;3823;53.586;10.040;2022-09-17T08:25:09;3.53;;;1.48;;
7563;SDS011;3823;53.586;10.040;2022-09-17T08:27:35;2.63;;;1.00;;
7563;SDS011;3823;53.586;10.040;2022-09-17T08:30:05;12.80;;;2.03;;
7563;SDS011;3823;53.586;10.040;2022-09-17T08:32:31;3.97;;;0.88;;
7563;SDS011;3823;53.586;10.040;2022-09-17T08:34:57;3.08;;;0.82;;
7563;SDS011;3823;53.586;10.040;2022-09-17T08:37:22;5.13;;;1.15;;
7563;SDS011;3823;53.586;10.040;2022-09-17T08:39:48;2.85;;;1.05;;
7563;SDS011;3823;53.586;10.040;2022-09-17T08:42:36;10.65;;;1.20;;
7563;SDS011;3823;53.586;10.040;2022-09-17T08:45:11;2.45;;;1.00;;
7563;SDS011;3823;53.586;10.040;2022-09-17T08:47:38;4.72;;;1.02;;
7563;SDS011;3823;53.586;10.040;2022-09-17T08:55:36;2.88;;;1.08;;
7563;SDS011;3823;53.586;10.040;2022-09-17T09:06:29;3.47;;;0.70;;
7563;SDS011;3823;53.586;10.040;2022-09-17T09:09:11;5.18;;;1.10;;
7563;SDS011;3823;53.586;10.040;2022-09-17T09:11:39;5.00;;;1.40;;
7563;SDS011;3823;53.586;10.040;2022-09-17T09:16:46;12.35;;;1.75;;
7563;SDS011;3823;53.586;10.040;2022-09-17T09:19:39;2.35;;;0.95;;
7563;SDS011;3823;53.586;10.040;2022-09-17T09:27:57;3.22;;;0.57;;
7563;SDS011;3823;53.586;10.040;2022-09-17T09:31:05;2.00;;;0.40;;
7563;SDS011;3823;53.586;10.040;2022-09-17T09:33:30;3.78;;;0.60;;
7563;SDS011;3823;53.586;10.040;2022-09-17T09:36:01;2.33;;;0.60;;
7563;SDS011;3823;53.586;10.040;2022-09-17T09:38:39;3.08;;;0.70;;
7563;SDS011;3823;53.586;10.040;2022-09-17T09:41:17;3.65;;;0.73;;
7563;SDS011;3823;53.586;10.040;2022-09-17T09:43:50;1.85;;;0.40;;
7563;SDS011;3823;53.586;10.040;2022-09-17T09:57:34;1.33;;;0.40;;
7563;SDS011;3823;53.586;10.040;2022-09-17T10:02:45;3.83;;;0.63;;
7563;SDS011;3823;53.586;10.040;2022-09-17T10:05:12;1.52;;;0.40;;
7563;SDS011;3823;53.586;10.040;2022-09-17T10:07:44;6.75;;;0.95;;
7563;SDS011;3823;53.586;10.040;2022-09-17T10:10:10;2.03;;;0.60;;
7563;SDS011;3823;53.586;10.040;2022-09-17T10:12:36;2.13;;;0.60;;
7563;SDS011;3823;53.586;10.040;2022-09-17T10:15:21;1.40;;;0.85;;
7563;SDS011;3823;53.586;10.040;2022-09-17T10:17:47;1.85;;;0.52;;
7563;SDS011;3823;53.586;10.040;2022-09-17T10:20:14;1.95;;;0.50;;
7563;SDS011;3823;53.586;10.040;2022-09-17T10:22:41;5.20;;;0.40;;
7563;SDS011;3823;53.586;10.040;2022-09-17T10:25:42;1.90;;;0.80;;
7563;SDS011;3823;53.586;10.040;2022-09-17T10:28:13;2.72;;;0.63;;
7563;SDS011;3823;53.586;10.040;2022-09-17T10:30:57;2.88;;;0.50;;
7563;SDS011;3823;53.586;10.040;2022-09-17T10:33:26;2.08;;;0.57;;
7563;SDS011;3823;53.586;10.040;2022-09-17T10:35:58;1.45;;;0.77;;
7563;SDS011;3823;53.586;10.040;2022-09-17T10:38:26;3.10;;;0.60;;
7563;SDS011;3823;53.586;10.040;2022-09-17T10:41:07;1.95;;;0.43;;
7563;SDS011;3823;53.586;10.040;2022-09-17T10:43:33;2.65;;;0.60;;
7563;SDS011;3823;53.586;10.040;2022-09-17T10:45:58;1.45;;;0.50;;
7563;SDS011;3823;53.586;10.040;2022-09-17T10:48:25;2.22;;;0.60;;
7563;SDS011;3823;53.586;10.040;2022-09-17T10:50:55;3.13;;;0.60;;
7563;SDS011;3823;53.586;10.040;2022-09-17T10:53:21;2.28;;;0.60;;
7563;SDS011;3823;53.586;10.040;2022-09-17T10:56:24;2.95;;;0.57;;
7563;SDS011;3823;53.586;10.040;2022-09-17T11:12:50;2.33;;;0.63;;
7563;SDS011;3823;53.586;10.040;2022-09-17T11:21:06;5.90;;;1.30;;
7563;SDS011;3823;53.586;10.040;2022-09-17T11:32:23;3.55;;;1.35;;
7563;SDS011;3823;53.586;10.040;2022-09-17T11:35:02;2.13;;;0.93;;
7563;SDS011;3823;53.586;10.040;2022-09-17T11:37:41;1.67;;;0.70;;
7563;SDS011;3823;53.586;10.040;2022-09-17T11:43:22;1.30;;;0.68;;
7563;SDS011;3823;53.586;10.040;2022-09-17T11:48:26;2.00;;;0.60;;
7563;SDS011;3823;53.586;10.040;2022-09-17T11:51:11;2.20;;;0.90;;
7563;SDS011;3823;53.586;10.040;2022-09-17T11:56:28;2.40;;;0.60;;
7563;SDS011;3823;53.586;10.040;2022-09-17T11:59:42;3.42;;;0.75;;
7563;SDS011;3823;53.586;10.040;2022-09-17T12:01:58;4.90;;;0.98;;
7563;SDS011;3823;53.586;10.040;2022-09-17T12:04:31;5.55;;;0.98;;
7563;SDS011;3823;53.586;10.040;2022-09-17T12:07:25;2.95;;;0.90;;
7563;SDS011;3823;53.586;10.040;2022-09-17T12:12:46;2.35;;;0.80;;
7563;SDS011;3823;53.586;10.040;2022-09-17T12:15:23;2.65;;;1.17;;
7563;SDS011;3823;53.586;10.040;2022-09-17T12:20:33;4.40;;;0.90;;
7563;SDS011;3823;53.586;10.040;2022-09-17T12:23:02;2.53;;;1.08;;
7563;SDS011;3823;53.586;10.040;2022-09-17T12:25:38;4.28;;;1.95;;
7563;SDS011;3823;53.586;10.040;2022-09-17T12:28:15;3.72;;;1.42;;
7563;SDS011;3823;53.586;10.040;2022-09-17T12:31:00;2.10;;;1.08;;
7563;SDS011;3823;53.586;10.040;2022-09-17T12:58:13;4.15;;;1.25;;
7563;SDS011;3823;53.586;10.040;2022-09-17T13:01:12;2.78;;;1.10;;
7563;SDS011;3823;53.586;10.040;2022-09-17T13:03:48;3.90;;;1.42;;
7563;SDS011;3823;53.586;10.040;2022-09-17T13:12:05;4.82;;;1.17;;
7563;SDS011;3823;53.586;10.040;2022-09-17T13:14:50;6.70;;;1.40;;
7563;SDS011;3823;53.586;10.040;2022-09-17T13:17:33;7.72;;;1.45;;
7563;SDS011;3823;53.586;10.040;2022-09-17T13:22:44;5.65;;;1.60;;
7563;SDS011;3823;53.586;10.040;2022-09-17T13:25:12;4.38;;;1.38;;
7563;SDS011;3823;53.586;10.040;2022-09-17T13:27:40;2.95;;;1.30;;
7563;SDS011;3823;53.586;10.040;2022-09-17T13:30:07;2.58;;;0.90;;
7563;SDS011;3823;53.586;10.040;2022-09-17T13:45:27;2.10;;;1.00;;
7563;SDS011;3823;53.586;10.040;2022-09-17T13:47:55;4.18;;;1.45;;
7563;SDS011;3823;53.586;10.040;2022-09-17T13:52:55;1.63;;;1.05;;
7563;SDS011;3823;53.586;10.040;2022-09-17T14:00:54;3.58;;;0.77;;
7563;SDS011;3823;53.586;10.040;2022-09-17T14:13:51;5.45;;;1.00;;
7563;SDS011;3823;53.586;10.040;2022-09-17T14:30:09;1.10;;;0.60;;
7563;SDS011;3823;53.586;10.040;2022-09-17T14:35:17;3.05;;;0.52;;
7563;SDS011;3823;53.586;10.040;2022-09-17T14:43:49;1.00;;;0.40;;
7563;SDS011;3823;53.586;10.040;2022-09-17T14:46:30;2.78;;;0.90;;
7563;SDS011;3823;53.586;10.040;2022-09-17T14:51:46;3.33;;;0.75;;
7563;SDS011;3823;53.586;10.040;2022-09-17T14:54:16;3.22;;;1.50;;
7563;SDS011;3823;53.586;10.040;2022-09-17T14:56:48;3.67;;;0.90;;
7563;SDS011;3823;53.586;10.040;2022-09-17T14:59:59;2.42;;;0.77;;
7563;SDS011;3823;53.586;10.040;2022-09-17T15:02:20;1.65;;;0.98;;
7563;SDS011;3823;53.586;10.040;2022-09-17T15:04:50;2.15;;;0.98;;
7563;SDS011;3823;53.586;10.040;2022-09-17T15:07:16;2.95;;;0.60;;
7563;SDS011;3823;53.586;10.040;2022-09-17T15:09:45;3.85;;;0.80;;
7563;SDS011;3823;53.586;10.040;2022-09-17T15:12:11;2.58;;;1.25;;
7563;SDS011;3823;53.586;10.040;2022-09-17T15:14:42;4.25;;;1.20;;
7563;SDS011;3823;53.586;10.040;2022-09-17T15:17:14;3.03;;;0.88;;
7563;SDS011;3823;53.586;10.040;2022-09-17T15:19:45;3.75;;;0.88;;
7563;SDS011;3823;53.586;10.040;2022-09-17T15:22:19;2.58;;;1.10;;
7563;SDS011;3823;53.586;10.040;2022-09-17T15:25:03;1.65;;;0.95;;
7563;SDS011;3823;53.586;10.040;2022-09-17T15:27:38;2.78;;;1.15;;
7563;SDS011;3823;53.586;10.040;2022-09-17T15:32:38;6.97;;;2.15;;
7563;SDS011;3823;53.586;10.040;2022-09-17T15:35:20;1.92;;;1.13;;
7563;SDS011;3823;53.586;10.040;2022-09-17T15:37:50;1.35;;;0.73;;
7563;SDS011;3823;53.586;10.040;2022-09-17T15:43:00;2.10;;;0.60;;
7563;SDS011;3823;53.586;10.040;2022-09-17T15:45:38;2.50;;;0.60;;
7563;SDS011;3823;53.586;10.040;2022-09-17T15:48:15;4.03;;;0.70;;
7563;SDS011;3823;53.586;10.040;2022-09-17T15:50:54;3.25;;;0.80;;
7563;SDS011;3823;53.586;10.040;2022-09-17T15:53:22;1.27;;;0.50;;
7563;SDS011;3823;53.586;10.040;2022-09-17T15:56:01;1.52;;;0.60;;
7563;SDS011;3823;53.586;10.040;2022-09-17T16:08:47;3.30;;;0.55;;
7563;SDS011;3823;53.586;10.040;2022-09-17T16:11:15;1.80;;;0.55;;
7563;SDS011;3823;53.586;10.040;2022-09-17T16:13:41;2.47;;;0.50;;
7563;SDS011;3823;53.586;10.040;2022-09-17T16:16:08;2.78;;;0.60;;
7563;SDS011;3823;53.586;10.040;2022-09-17T16:18:39;3.78;;;0.80;;
7563;SDS011;3823;53.586;10.040;2022-09-17T16:21:05;2.67;;;0.80;;
7563;SDS011;3823;53.586;10.040;2022-09-17T16:23:32;2.83;;;0.73;;
7563;SDS011;3823;53.586;10.040;2022-09-17T16:25:57;3.05;;;0.40;;
7563;SDS011;3823;53.586;10.040;2022-09-17T16:28:23;1.63;;;0.80;;
7563;SDS011;3823;53.586;10.040;2022-09-17T16:30:48;2.75;;;0.60;;
7563;SDS011;3823;53.586;10.040;2022-09-17T16:33:14;2.13;;;0.55;;
7563;SDS011;3823;53.586;10.040;2022-09-17T16:35:41;2.10;;;0.82;;
7563;SDS011;3823;53.586;10.040;2022-09-17T16:38:08;3.17;;;0.82;;
7563;SDS011;3823;53.586;10.040;2022-09-17T16:40:38;4.35;;;1.20;;
7563;SDS011;3823;53.586;10.040;2022-09-17T16:43:05;1.50;;;0.90;;
7563;SDS011;3823;53.586;10.040;2022-09-17T16:45:32;3.08;;;0.73;;
7563;SDS011;3823;53.586;10.040;2022-09-17T16:47:58;2.22;;;0.77;;
7563;SDS011;3823;53.586;10.040;2022-09-17T16:50:24;2.45;;;0.77;;
7563;SDS011;3823;53.586;10.040;2022-09-17T16:52:50;1.70;;;0.77;;
7563;SDS011;3823;53.586;10.040;2022-09-17T16:55:16;3.13;;;1.63;;
7563;SDS011;3823;53.586;10.040;2022-09-17T16:57:42;3.95;;;1.45;;
7563;SDS011;3823;53.586;10.040;2022-09-17T17:00:09;6.70;;;1.10;;
7563;SDS011;3823;53.586;10.040;2022-09-17T17:02:37;3.03;;;0.70;;
7563;SDS011;3823;53.586;10.040;2022-09-17T17:05:03;1.52;;;0.63;;
7563;SDS011;3823;53.586;10.040;2022-09-17T17:07:29;1.90;;;0.60;;
7563;SDS011;3823;53.586;10.040;2022-09-17T17:09:56;2.33;;;0.80;;
7563;SDS011;3823;53.586;10.040;2022-09-17T17:12:23;1.52;;;0.57;;
7563;SDS011;3823;53.586;10.040;2022-09-17T17:14:49;3.85;;;1.42;;
7563;SDS011;3823;53.586;10.040;2022-09-17T17:17:16;2.17;;;0.60;;
7563;SDS011;3823;53.586;10.040;2022-09-17T17:19:42;1.20;;;0.60;;
7563;SDS011;3823;53.586;10.040;2022-09-17T17:22:09;1.20;;;0.57;;
7563;SDS011;3823;53.586;10.040;2022-09-17T17:24:34;1.38;;;0.65;;
7563;SDS011;3823;53.586;10.040;2022-09-17T17:27:00;3.58;;;0.70;;
7563;SDS011;3823;53.586;10.040;2022-09-17T17:29:27;4.55;;;0.95;;
7563;SDS011;3823;53.586;10.040;2022-09-17T17:31:52;1.90;;;1.30;;
7563;SDS011;3823;53.586;10.040;2022-09-17T17:34:17;2.00;;;1.42;;
7563;SDS011;3823;53.586;10.040;2022-09-17T17:36:43;3.33;;;1.27;;
7563;SDS011;3823;53.586;10.040;2022-09-17T17:39:09;3.55;;;1.77;;
7563;SDS011;3823;53.586;10.040;2022-09-17T17:41:34;1.30;;;0.82;;
7563;SDS011;3823;53.586;10.040;2022-09-17T17:44:00;2.97;;;1.02;;
7563;SDS011;3823;53.586;10.040;2022-09-17T17:46:26;10.30;;;0.85;;
7563;SDS011;3823;53.586;10.040;2022-09-17T17:48:51;1.60;;;0.80;;
7563;SDS011;3823;53.586;10.040;2022-09-17T17:51:17;5.70;;;2.40;;
7563;SDS011;3823;53.586;10.040;2022-09-17T17:53:43;4.40;;;0.93;;
7563;SDS011;3823;53.586;10.040;2022-09-17T17:56:09;4.38;;;0.75;;
7563;SDS011;3823;53.586;10.040;2022-09-17T17:58:36;1.95;;;0.60;;
7563;SDS011;3823;53.586;10.040;2022-09-17T18:01:16;6.40;;;1.27;;
7563;SDS011;3823;53.586;10.040;2022-09-17T18:03:44;2.08;;;1.30;;
7563;SDS011;3823;53.586;10.040;2022-09-17T18:06:09;1.80;;;0.73;;
7563;SDS011;3823;53.586;10.040;2022-09-17T18:08:36;4.45;;;1.15;;
7563;SDS011;3823;53.586;10.040;2022-09-17T18:11:03;2.63;;;0.73;;
7563;SDS011;3823;53.586;10.040;2022-09-17T18:13:32;1.58;;;0.70;;
7563;SDS011;3823;53.586;10.040;2022-09-17T18:16:02;4.03;;;0.75;;
7563;SDS011;3823;53.586;10.040;2022-09-17T18:18:33;2.10;;;0.73;;
7563;SDS011;3823;53.586;10.040;2022-09-17T18:21:01;2.15;;;0.70;;
7563;SDS011;3823;53.586;10.040;2022-09-17T18:23:30;1.73;;;0.88;;
7563;SDS011;3823;53.586;10.040;2022-09-17T18:25:58;1.60;;;0.98;;
7563;SDS011;3823;53.586;10.040;2022-09-17T18:28:24;2.47;;;0.70;;
7563;SDS011;3823;53.586;10.040;2022-09-17T18:30:51;2.13;;;1.40;;
7563;SDS011;3823;53.586;10.040;2022-09-17T18:33:17;2.70;;;1.38;;
7563;SDS011;3823;53.586;10.040;2022-09-17T18:35:48;2.55;;;1.38;;
7563;SDS011;3823;53.586;10.040;2022-09-17T18:38:15;4.90;;;1.73;;
7563;SDS011;3823;53.586;10.040;2022-09-17T18:40:41;7.35;;;2.47;;
7563;SDS011;3823;53.586;10.040;2022-09-17T18:43:07;3.67;;;1.60;;
7563;SDS011;3823;53.586;10.040;2022-09-17T18:45:33;2.03;;;1.40;;
7563;SDS011;3823;53.586;10.040;2022-09-17T18:47:59;1.48;;;0.98;;
7563;SDS011;3823;53.586;10.040;2022-09-17T18:50:25;4.57;;;1.52;;
7563;SDS011;3823;53.586;10.040;2022-09-17T18:52:51;2.50;;;1.30;;
7563;SDS011;3823;53.586;10.040;2022-09-17T18:55:16;2.85;;;1.20;;